Time;durP1;ratioP1;P1;durP2;ratioP2;P2;SDS_P1;SDS_P2;PMS_P1;PMS_P2;Temp;Humidity;BMP_temperature;BMP_pressure;BME280_temperature;BME280_humidity;BME280_pressure;Samples;Min_cycle;Max_cycle;Signal;HPM_P1;HPM_P2
2023/09/13 00:02:23;;;;;;;0.40;0.23;;;21.30;99.90;;;;;;5077317;28;20196;-84
2023/09/13 00:04:48;;;;;;;0.40;0.20;;;21.20;99.90;;;;;;5068929;28;21057;-80
2023/09/13 00:07:14;;;;;;;0.50;0.47;;;21.20;99.90;;;;;;5060607;28;21158;-82
2023/09/13 00:09:41;;;;;;;0.40;0.20;;;21.20;99.90;;;;;;5063440;28;20196;-78
2023/09/13 00:12:12;;;;;;;0.40;0.30;;;21.20;99.90;;;;;;5062963;28;20229;-85
2023/09/13 00:14:38;;;;;;;0.50;0.40;;;21.20;99.90;;;;;;5062319;28;20434;-83
2023/09/13 00:17:04;;;;;;;0.40;0.33;;;21.30;99.90;;;;;;5057741;28;20434;-80
2023/09/13 00:19:30;;;;;;;0.50;0.30;;;21.30;99.90;;;;;;5055196;28;20196;-82
2023/09/13 00:21:56;;;;;;;0.40;0.30;;;21.30;99.90;;;;;;5058202;28;21757;-81
2023/09/13 00:24:22;;;;;;;0.40;0.20;;;21.30;99.90;;;;;;5064692;28;20180;-80
2023/09/13 00:26:47;;;;;;;0.70;0.67;;;21.20;99.90;;;;;;5051225;28;20435;-80
2023/09/13 00:29:14;;;;;;;0.40;0.30;;;21.20;99.90;;;;;;5057950;28;20203;-78
2023/09/13 00:31:40;;;;;;;0.50;0.40;;;21.30;99.90;;;;;;5068959;28;20204;-82
2023/09/13 00:34:07;;;;;;;0.50;0.40;;;21.30;99.90;;;;;;5075550;28;20450;-79
2023/09/13 00:36:33;;;;;;;0.70;0.47;;;21.20;99.90;;;;;;5059259;28;20184;-81
2023/09/13 00:38:58;;;;;;;0.40;0.30;;;21.20;99.90;;;;;;5059062;28;20481;-82
2023/09/13 00:41:24;;;;;;;0.40;0.20;;;21.20;99.90;;;;;;5066418;28;20907;-78
2023/09/13 00:43:50;;;;;;;0.40;0.30;;;21.20;99.90;;;;;;5059177;28;20192;-78
2023/09/13 00:46:16;;;;;;;0.50;0.40;;;21.20;99.90;;;;;;5061443;28;20179;-83
2023/09/13 00:48:42;;;;;;;0.40;0.20;;;21.20;99.90;;;;;;5050993;28;20246;-80
2023/09/13 00:51:09;;;;;;;0.40;0.30;;;21.20;99.90;;;;;;5059855;28;20466;-84
2023/09/13 00:53:35;;;;;;;0.40;0.30;;;21.20;99.90;;;;;;5059419;28;21740;-80
2023/09/13 00:56:02;;;;;;;0.43;0.33;;;21.20;99.90;;;;;;5055376;28;20485;-79
2023/09/13 00:58:29;;;;;;;0.50;0.40;;;21.30;99.90;;;;;;5056454;28;20442;-80
2023/09/13 01:00:55;;;;;;;0.40;0.23;;;21.20;99.90;;;;;;5074010;28;20596;-81
2023/09/13 01:03:22;;;;;;;0.40;0.20;;;21.20;99.90;;;;;;5066901;28;20526;-83
2023/09/13 01:05:52;;;;;;;0.40;0.30;;;21.20;99.90;;;;;;5068149;28;20180;-80
2023/09/13 01:08:19;;;;;;;0.50;0.30;;;21.30;99.90;;;;;;5066110;28;20568;-81
2023/09/13 01:10:45;;;;;;;0.40;0.20;;;21.20;99.90;;;;;;5069161;28;20473;-81
2023/09/13 01:13:11;;;;;;;0.40;0.40;;;21.20;99.90;;;;;;5061517;28;20454;-80
2023/09/13 01:15:44;;;;;;;0.40;0.20;;;21.40;99.90;;;;;;5063657;28;20458;-77
2023/09/13 01:18:15;;;;;;;0.40;0.20;;;21.10;99.90;;;;;;5070086;28;20303;-80
2023/09/13 01:21:10;;;;;;;0.47;0.40;;;21.80;99.90;;;;;;5057672;28;20458;-81
2023/09/13 01:23:54;;;;;;;0.40;0.30;;;20.90;99.90;;;;;;5062772;28;20453;-84
2023/09/13 01:27:01;;;;;;;0.40;0.20;;;20.60;99.90;;;;;;5052937;28;20454;-79
2023/09/13 01:29:30;;;;;;;0.50;0.40;;;20.40;99.90;;;;;;5049370;28;20579;-79
2023/09/13 01:31:56;;;;;;;0.40;0.20;;;20.40;99.90;;;;;;5061068;28;20808;-81
2023/09/13 01:34:22;;;;;;;0.40;0.20;;;20.30;99.90;;;;;;5067755;28;20438;-80
2023/09/13 01:36:47;;;;;;;0.40;0.30;;;20.20;99.90;;;;;;5060617;28;20180;-85
2023/09/13 01:39:13;;;;;;;0.40;0.30;;;20.30;99.90;;;;;;5057428;28;20195;-84
2023/09/13 01:42:10;;;;;;;0.40;0.30;;;20.20;99.90;;;;;;5056557;28;20208;-80
2023/09/13 01:44:40;;;;;;;0.40;0.20;;;20.30;99.90;;;;;;5057941;28;20184;-80
2023/09/13 01:47:07;;;;;;;0.40;0.30;;;20.20;99.90;;;;;;5058672;28;20443;-83
2023/09/13 01:49:35;;;;;;;0.40;0.27;;;20.10;99.90;;;;;;5053366;28;20426;-80
2023/09/13 01:52:04;;;;;;;0.40;0.27;;;20.20;99.90;;;;;;5056370;28;20497;-82
2023/09/13 01:54:33;;;;;;;0.40;0.20;;;20.20;99.90;;;;;;5055855;28;21086;-82
2023/09/13 01:56:58;;;;;;;1.67;0.50;;;20.20;99.90;;;;;;5060116;28;20530;-80
2023/09/13 01:59:24;;;;;;;0.40;0.20;;;20.30;99.90;;;;;;5075701;28;20470;-80
2023/09/13 02:01:49;;;;;;;0.40;0.30;;;20.40;99.90;;;;;;5070386;28;20216;-80
2023/09/13 02:04:15;;;;;;;0.40;0.30;;;20.30;99.90;;;;;;5059897;28;20196;-83
2023/09/13 02:06:40;;;;;;;0.40;0.20;;;20.40;99.90;;;;;;5055021;28;20196;-83
2023/09/13 02:09:06;;;;;;;0.40;0.30;;;20.50;99.90;;;;;;5062943;28;20188;-84
2023/09/13 02:11:32;;;;;;;0.40;0.20;;;20.50;99.90;;;;;;5068941;28;20201;-80
2023/09/13 02:13:57;;;;;;;0.40;0.23;;;20.50;99.90;;;;;;5068355;28;20501;-81
2023/09/13 02:16:24;;;;;;;0.40;0.20;;;20.50;99.90;;;;;;5068175;28;20441;-80
2023/09/13 02:18:50;;;;;;;0.53;0.43;;;20.40;99.90;;;;;;5064942;28;20223;-79
2023/09/13 02:21:16;;;;;;;0.40;0.30;;;20.40;99.90;;;;;;5048414;28;20574;-82
2023/09/13 02:23:43;;;;;;;0.80;0.40;;;20.30;99.90;;;;;;5059980;28;20454;-81
2023/09/13 02:26:21;;;;;;;0.60;0.40;;;20.30;99.90;;;;;;5061573;28;20595;-81
2023/09/13 02:28:47;;;;;;;0.80;0.43;;;20.30;99.90;;;;;;5060262;28;20446;-83
2023/09/13 02:31:13;;;;;;;0.40;0.30;;;20.20;99.90;;;;;;5064946;28;20469;-81
2023/09/13 02:33:38;;;;;;;0.40;0.20;;;20.10;99.90;;;;;;5061742;28;20474;-83
2023/09/13 02:36:04;;;;;;;3.13;0.70;;;20.00;99.90;;;;;;5056339;28;20200;-85
2023/09/13 02:38:29;;;;;;;0.40;0.30;;;20.10;99.90;;;;;;5053930;28;20192;-84
2023/09/13 02:40:55;;;;;;;0.50;0.37;;;19.90;99.90;;;;;;5072360;28;20215;-77
2023/09/13 02:43:21;;;;;;;0.40;0.20;;;19.90;99.90;;;;;;5059422;28;20220;-79
2023/09/13 02:45:46;;;;;;;0.40;0.20;;;19.70;99.90;;;;;;5064251;28;20184;-85
2023/09/13 02:48:12;;;;;;;0.40;0.30;;;19.70;99.90;;;;;;5061229;28;20739;-83
2023/09/13 02:50:41;;;;;;;0.40;0.20;;;19.60;99.90;;;;;;5075004;28;20200;-78
2023/09/13 02:53:06;;;;;;;0.63;0.63;;;20.00;99.90;;;;;;5057155;28;20226;-82
2023/09/13 02:55:32;;;;;;;0.40;0.20;;;20.60;99.90;;;;;;5049263;28;20450;-83
2023/09/13 02:57:57;;;;;;;0.40;0.30;;;19.90;99.90;;;;;;5058394;28;20195;-78
2023/09/13 03:00:23;;;;;;;0.83;0.83;;;19.90;99.90;;;;;;5044171;28;20209;-80
2023/09/13 03:02:49;;;;;;;0.40;0.20;;;20.00;99.90;;;;;;5064217;28;20294;-79
2023/09/13 03:05:15;;;;;;;0.73;0.47;;;19.90;99.90;;;;;;5062073;28;20185;-79
2023/09/13 03:07:41;;;;;;;0.40;0.30;;;19.80;99.90;;;;;;5053991;28;20278;-80
2023/09/13 03:10:07;;;;;;;0.40;0.27;;;19.70;99.90;;;;;;5056010;28;20458;-86
2023/09/13 03:12:33;;;;;;;0.40;0.30;;;19.80;99.90;;;;;;5050996;28;20197;-80
2023/09/13 03:14:59;;;;;;;0.40;0.20;;;19.70;99.90;;;;;;5046667;28;21170;-81
2023/09/13 03:17:24;;;;;;;0.40;0.30;;;19.80;99.90;;;;;;5065353;28;20450;-78
2023/09/13 03:19:50;;;;;;;0.40;0.20;;;19.70;99.90;;;;;;5056773;28;20343;-83
2023/09/13 03:22:16;;;;;;;0.40;0.20;;;19.70;99.90;;;;;;5058666;28;20207;-83
2023/09/13 03:24:41;;;;;;;0.40;0.30;;;19.60;99.90;;;;;;5057284;28;20219;-83
2023/09/13 03:27:08;;;;;;;0.63;0.63;;;19.60;99.90;;;;;;5057023;28;20250;-85
2023/09/13 03:29:34;;;;;;;0.40;0.20;;;19.70;99.90;;;;;;5067907;28;20196;-85
2023/09/13 03:31:59;;;;;;;0.40;0.20;;;19.60;99.90;;;;;;5057641;28;20476;-82
2023/09/13 03:34:25;;;;;;;1.43;0.50;;;19.70;99.90;;;;;;5064601;28;20196;-83
2023/09/13 03:36:50;;;;;;;0.40;0.20;;;19.90;99.90;;;;;;5058341;28;20239;-79
2023/09/13 03:39:16;;;;;;;0.60;0.33;;;19.60;99.90;;;;;;5051691;28;20218;-83
2023/09/13 03:41:41;;;;;;;0.50;0.30;;;20.10;99.90;;;;;;5054138;28;20208;-81
2023/09/13 03:44:07;;;;;;;0.40;0.20;;;19.50;99.90;;;;;;5059929;28;20188;-84
2023/09/13 03:46:33;;;;;;;0.40;0.20;;;19.40;99.90;;;;;;5064139;28;20188;-81
2023/09/13 03:48:58;;;;;;;0.60;0.30;;;19.50;99.90;;;;;;5051364;28;20822;-83
2023/09/13 03:51:24;;;;;;;0.40;0.30;;;19.50;99.90;;;;;;5051157;28;20215;-83
2023/09/13 03:53:49;;;;;;;0.40;0.20;;;19.50;99.90;;;;;;5055684;28;21249;-79
2023/09/13 03:56:15;;;;;;;0.70;0.50;;;19.50;99.90;;;;;;5056341;28;20215;-80
2023/09/13 03:58:40;;;;;;;0.40;0.30;;;19.40;99.90;;;;;;5062367;28;20571;-80
2023/09/13 04:01:06;;;;;;;0.40;0.40;;;18.30;99.90;;;;;;5063339;28;20234;-80
2023/09/13 04:03:32;;;;;;;0.40;0.20;;;19.50;99.90;;;;;;5068164;28;20200;-82
2023/09/13 04:05:59;;;;;;;0.40;0.20;;;19.50;99.90;;;;;;5074237;28;20460;-84
2023/09/13 04:08:24;;;;;;;0.40;0.30;;;19.40;99.90;;;;;;5065227;28;20192;-85
2023/09/13 04:10:50;;;;;;;0.40;0.20;;;19.30;99.90;;;;;;5060766;28;20484;-82
2023/09/13 04:13:16;;;;;;;0.67;0.60;;;19.30;99.90;;;;;;5059950;28;20210;-84
2023/09/13 04:15:44;;;;;;;0.70;0.67;;;19.20;99.90;;;;;;5064731;28;20431;-82
2023/09/13 04:18:10;;;;;;;0.40;0.20;;;19.10;99.90;;;;;;5066331;28;20177;-78
2023/09/13 04:20:35;;;;;;;0.40;0.20;;;19.20;99.90;;;;;;5059907;28;20985;-81
2023/09/13 04:23:01;;;;;;;0.40;0.30;;;19.20;99.90;;;;;;5063726;28;20218;-80
2023/09/13 04:25:26;;;;;;;0.80;0.80;;;19.10;99.90;;;;;;5061267;28;20243;-78
2023/09/13 04:27:52;;;;;;;0.40;0.30;;;19.10;99.90;;;;;;5063309;28;20197;-80
2023/09/13 04:30:18;;;;;;;3.70;0.83;;;19.20;99.90;;;;;;5051552;28;20218;-82
2023/09/13 04:32:44;;;;;;;0.40;0.27;;;19.20;99.90;;;;;;5058033;28;20421;-84
2023/09/13 04:35:11;;;;;;;0.40;0.20;;;19.20;99.90;;;;;;5064455;28;20458;-76
2023/09/13 04:37:37;;;;;;;0.40;0.30;;;19.10;99.90;;;;;;5055153;28;20196;-78
2023/09/13 04:40:06;;;;;;;0.40;0.20;;;19.10;99.90;;;;;;5053548;28;20462;-85
2023/09/13 04:42:36;;;;;;;0.40;0.30;;;19.10;99.90;;;;;;5058867;28;20224;-81
2023/09/13 04:45:03;;;;;;;0.40;0.20;;;19.10;99.90;;;;;;5078586;28;20447;-81
2023/09/13 04:47:28;;;;;;;0.40;0.30;;;19.20;99.90;;;;;;5055872;28;20893;-81
2023/09/13 04:49:54;;;;;;;0.40;0.20;;;19.90;99.90;;;;;;5054257;28;20553;-78
2023/09/13 04:52:19;;;;;;;0.40;0.30;;;19.20;99.90;;;;;;5059504;28;20188;-85
2023/09/13 04:54:45;;;;;;;0.93;0.83;;;19.20;99.90;;;;;;5059824;28;20216;-82
2023/09/13 04:57:10;;;;;;;0.40;0.20;;;19.20;99.90;;;;;;5069038;28;20180;-79
2023/09/13 04:59:48;;;;;;;0.40;0.30;;;19.20;99.90;;;;;;5062216;28;20251;-83
2023/09/13 05:02:14;;;;;;;0.40;0.20;;;19.20;99.90;;;;;;5051406;28;20222;-79
2023/09/13 05:04:40;;;;;;;0.40;0.20;;;19.10;99.90;;;;;;5051529;28;20442;-84
2023/09/13 05:07:06;;;;;;;0.40;0.20;;;19.00;99.90;;;;;;5059801;28;20438;-82
2023/09/13 05:09:32;;;;;;;0.40;0.20;;;19.00;99.90;;;;;;5060578;28;20676;-83
2023/09/13 05:11:58;;;;;;;0.40;0.20;;;19.00;99.90;;;;;;5055002;28;20450;-83
2023/09/13 05:14:23;;;;;;;0.40;0.20;;;19.00;99.90;;;;;;5056398;28;21550;-79
2023/09/13 05:16:49;;;;;;;0.40;0.30;;;18.90;99.90;;;;;;5054290;28;20447;-84
2023/09/13 05:19:15;;;;;;;0.40;0.30;;;18.90;99.90;;;;;;5050664;28;20273;-81
2023/09/13 05:21:41;;;;;;;0.50;0.40;;;18.80;99.90;;;;;;5048984;28;20221;-83
2023/09/13 05:24:07;;;;;;;0.40;0.30;;;18.80;99.90;;;;;;5059937;28;20184;-79
2023/09/13 05:26:33;;;;;;;0.40;0.20;;;18.90;99.90;;;;;;5058265;28;20449;-83
2023/09/13 05:28:58;;;;;;;0.40;0.20;;;19.40;99.90;;;;;;5066348;28;20298;-79
2023/09/13 05:31:24;;;;;;;0.40;0.20;;;19.30;99.90;;;;;;5065489;28;20212;-84
2023/09/13 05:33:49;;;;;;;0.40;0.20;;;19.70;99.90;;;;;;5055737;28;20752;-79
2023/09/13 05:36:16;;;;;;;0.40;0.20;;;20.20;99.90;;;;;;5066746;28;20201;-84
2023/09/13 05:38:42;;;;;;;0.40;0.20;;;21.20;99.90;;;;;;5066922;28;20185;-82
2023/09/13 05:41:09;;;;;;;0.40;0.30;;;21.70;99.90;;;;;;5062885;28;20466;-81
2023/09/13 05:43:35;;;;;;;0.77;0.77;;;22.60;99.90;;;;;;5081777;28;20527;-85
2023/09/13 05:46:00;;;;;;;0.40;0.30;;;24.20;99.90;;;;;;5068149;28;20466;-87
2023/09/13 05:48:26;;;;;;;0.40;0.30;;;25.80;99.90;;;;;;5062100;28;20483;-80
2023/09/13 05:50:51;;;;;;;0.40;0.30;;;27.10;99.90;;;;;;5066453;28;20212;-85
2023/09/13 05:53:19;;;;;;;0.40;0.30;;;28.50;99.90;;;;;;5067296;28;20191;-84
2023/09/13 05:55:45;;;;;;;0.50;0.40;;;28.60;99.90;;;;;;5066550;28;20191;-84
2023/09/13 05:58:11;;;;;;;0.40;0.30;;;27.60;99.90;;;;;;5071340;28;20453;-82
2023/09/13 06:00:37;;;;;;;0.40;0.30;;;26.00;99.90;;;;;;5071648;28;20458;-83
2023/09/13 06:03:02;;;;;;;0.40;0.30;;;24.30;99.90;;;;;;5080000;28;20261;-79
2023/09/13 06:05:28;;;;;;;0.40;0.27;;;23.10;99.90;;;;;;5073730;28;20189;-83
2023/09/13 06:07:53;;;;;;;0.40;0.30;;;22.40;99.90;;;;;;5068799;28;20177;-86
2023/09/13 06:10:19;;;;;;;0.40;0.30;;;21.90;99.90;;;;;;5062822;28;20203;-78
2023/09/13 06:12:45;;;;;;;0.40;0.30;;;21.80;99.90;;;;;;5059689;28;20188;-83
2023/09/13 06:15:11;;;;;;;0.40;0.23;;;22.80;99.90;;;;;;5059179;28;20755;-83
2023/09/13 06:17:37;;;;;;;0.40;0.20;;;21.30;99.90;;;;;;5065213;28;20810;-82
2023/09/13 06:20:06;;;;;;;0.67;0.40;;;20.90;99.90;;;;;;5056188;28;20469;-82
2023/09/13 06:22:34;;;;;;;0.53;0.40;;;20.30;99.90;;;;;;5060840;28;20285;-84
2023/09/13 06:25:00;;;;;;;0.40;0.20;;;20.10;99.90;;;;;;5072349;28;20430;-83
2023/09/13 06:27:26;;;;;;;0.40;0.20;;;20.00;99.90;;;;;;5063070;28;20499;-85
2023/09/13 06:29:52;;;;;;;0.40;0.30;;;20.00;99.90;;;;;;5066717;28;20923;-79
2023/09/13 06:32:18;;;;;;;0.40;0.20;;;20.10;99.90;;;;;;5071876;28;20190;-77
2023/09/13 06:34:43;;;;;;;0.40;0.20;;;20.00;99.90;;;;;;5074312;28;20203;-82
2023/09/13 06:37:09;;;;;;;0.40;0.20;;;20.00;99.90;;;;;;5072307;28;20213;-79
2023/09/13 06:39:34;;;;;;;0.40;0.20;;;19.90;99.90;;;;;;5075247;28;20191;-83
2023/09/13 06:42:01;;;;;;;0.40;0.20;;;20.10;99.90;;;;;;5088504;28;20212;-81
2023/09/13 06:44:27;;;;;;;0.40;0.20;;;20.00;99.90;;;;;;5070747;28;20177;-83
2023/09/13 06:46:53;;;;;;;0.40;0.30;;;19.80;99.90;;;;;;5083824;28;20571;-83
2023/09/13 06:49:18;;;;;;;0.60;0.50;;;20.00;99.90;;;;;;5063732;28;20431;-85
2023/09/13 06:51:44;;;;;;;0.40;0.20;;;19.70;99.90;;;;;;5067826;28;20624;-82
2023/09/13 06:54:09;;;;;;;0.40;0.20;;;19.50;99.90;;;;;;5075377;28;20743;-79
2023/09/13 06:56:35;;;;;;;0.40;0.30;;;19.80;99.90;;;;;;5070964;28;20184;-84
2023/09/13 06:59:00;;;;;;;0.40;0.30;;;19.50;99.90;;;;;;5074642;28;20180;-82
2023/09/13 07:01:26;;;;;;;0.40;0.20;;;19.60;99.90;;;;;;5071687;28;20566;-80
2023/09/13 07:03:52;;;;;;;0.60;0.50;;;19.30;99.90;;;;;;5069756;28;20419;-80
2023/09/13 07:06:17;;;;;;;0.40;0.20;;;19.60;99.90;;;;;;5069636;28;20270;-85
2023/09/13 07:08:43;;;;;;;0.40;0.30;;;19.30;99.90;;;;;;5072938;28;20261;-82
2023/09/13 07:11:09;;;;;;;0.40;0.20;;;19.40;99.90;;;;;;5090248;28;20200;-83
2023/09/13 07:13:34;;;;;;;0.40;0.20;;;19.50;99.90;;;;;;5070151;28;20220;-83
2023/09/13 07:16:00;;;;;;;0.40;0.20;;;19.40;99.90;;;;;;5072768;28;20435;-86
2023/09/13 07:18:26;;;;;;;0.40;0.20;;;19.30;99.90;;;;;;5075287;28;20418;-81
2023/09/13 07:20:51;;;;;;;0.40;0.20;;;19.30;99.90;;;;;;5070825;28;20759;-80
2023/09/13 07:23:17;;;;;;;0.40;0.23;;;19.20;99.90;;;;;;5071069;28;20200;-82
2023/09/13 07:25:42;;;;;;;0.40;0.20;;;19.30;99.90;;;;;;5075165;28;20244;-80
2023/09/13 07:28:08;;;;;;;0.50;0.43;;;19.30;99.90;;;;;;5069812;28;20196;-82
2023/09/13 07:30:34;;;;;;;0.40;0.30;;;19.50;99.90;;;;;;5068906;28;20200;-79
2023/09/13 07:33:00;;;;;;;0.40;0.27;;;19.30;99.90;;;;;;5076321;28;20180;-79
2023/09/13 07:35:26;;;;;;;0.40;0.20;;;19.40;99.90;;;;;;5079174;28;20188;-85
2023/09/13 07:37:51;;;;;;;0.40;0.27;;;19.30;99.90;;;;;;5083211;28;20465;-82
2023/09/13 07:40:17;;;;;;;0.40;0.30;;;19.40;99.90;;;;;;5077670;28;20232;-83
2023/09/13 07:42:42;;;;;;;0.40;0.20;;;19.50;99.90;;;;;;5076757;28;20216;-83
2023/09/13 07:45:08;;;;;;;0.40;0.20;;;19.40;99.90;;;;;;5072464;28;20199;-82
2023/09/13 07:47:34;;;;;;;0.40;0.23;;;19.30;99.90;;;;;;5066493;28;20181;-82
2023/09/13 07:49:59;;;;;;;0.40;0.30;;;19.20;99.90;;;;;;5069778;28;20204;-82
2023/09/13 07:52:26;;;;;;;0.40;0.30;;;19.00;99.90;;;;;;5065607;28;20211;-82
2023/09/13 07:54:52;;;;;;;0.40;0.20;;;18.90;99.90;;;;;;5074940;28;20291;-79
2023/09/13 07:57:18;;;;;;;0.40;0.20;;;18.90;99.90;;;;;;5072666;28;20482;-81
2023/09/13 07:59:44;;;;;;;0.40;0.30;;;19.00;99.90;;;;;;5069238;28;20464;-84
2023/09/13 08:02:10;;;;;;;0.40;0.20;;;19.20;99.90;;;;;;5069933;28;20470;-84
2023/09/13 08:04:35;;;;;;;0.40;0.30;;;19.40;99.90;;;;;;5066221;28;20438;-82
2023/09/13 08:07:02;;;;;;;0.40;0.20;;;19.40;99.90;;;;;;5072499;28;20612;-84
2023/09/13 08:09:28;;;;;;;0.40;0.30;;;19.40;99.90;;;;;;5078559;28;20185;-77
2023/09/13 08:11:53;;;;;;;1.10;0.40;;;19.70;99.90;;;;;;5077095;28;21182;-82
2023/09/13 08:14:19;;;;;;;0.40;0.30;;;19.90;99.90;;;;;;5064828;28;20192;-83
2023/09/13 08:16:45;;;;;;;0.40;0.30;;;19.90;99.90;;;;;;5079472;28;20173;-77
2023/09/13 08:19:11;;;;;;;0.40;0.30;;;20.10;99.90;;;;;;5082382;28;20227;-80
2023/09/13 08:21:37;;;;;;;0.40;0.30;;;20.20;99.90;;;;;;5074319;28;21323;-80
2023/09/13 08:24:03;;;;;;;0.40;0.20;;;20.40;99.90;;;;;;5073507;28;20256;-83
2023/09/13 08:26:30;;;;;;;0.40;0.30;;;20.40;99.90;;;;;;5073339;28;20442;-84
2023/09/13 08:28:56;;;;;;;0.40;0.20;;;20.80;99.90;;;;;;5075452;28;20446;-85
2023/09/13 08:31:23;;;;;;;0.40;0.20;;;20.80;99.90;;;;;;5071016;28;21324;-85
2023/09/13 08:33:49;;;;;;;0.40;0.20;;;20.80;99.90;;;;;;5065491;28;20437;-83
2023/09/13 08:36:17;;;;;;;0.40;0.30;;;21.00;99.90;;;;;;5071227;28;20435;-79
2023/09/13 08:38:43;;;;;;;0.40;0.30;;;21.20;99.90;;;;;;5070066;28;20199;-82
2023/09/13 08:41:08;;;;;;;0.40;0.20;;;21.10;99.90;;;;;;5081287;28;20561;-79
2023/09/13 08:43:36;;;;;;;0.40;0.20;;;21.20;99.90;;;;;;5080335;28;20532;-80
2023/09/13 08:46:02;;;;;;;0.40;0.20;;;21.20;99.90;;;;;;5078712;28;20211;-82
2023/09/13 08:48:29;;;;;;;0.40;0.20;;;21.30;99.90;;;;;;5075366;28;20446;-82
2023/09/13 08:50:54;;;;;;;0.40;0.30;;;21.40;99.90;;;;;;5069802;28;20509;-81
2023/09/13 08:53:20;;;;;;;0.40;0.20;;;21.40;99.90;;;;;;5065955;28;20435;-81
2023/09/13 08:55:48;;;;;;;0.40;0.20;;;21.50;99.90;;;;;;5070804;28;20190;-83
2023/09/13 08:58:13;;;;;;;0.40;0.20;;;21.70;99.90;;;;;;5066603;28;20195;-81
2023/09/13 09:00:41;;;;;;;0.40;0.20;;;21.90;99.90;;;;;;5068949;28;20450;-82
2023/09/13 09:03:12;;;;;;;0.40;0.30;;;21.80;99.90;;;;;;5074126;28;20196;-81
2023/09/13 09:05:38;;;;;;;0.40;0.30;;;22.20;99.90;;;;;;5077279;28;20698;-80
2023/09/13 09:08:04;;;;;;;0.40;0.23;;;22.30;99.90;;;;;;5073652;28;20445;-87
2023/09/13 09:10:31;;;;;;;0.40;0.30;;;22.20;99.90;;;;;;5070079;28;20458;-82
2023/09/13 09:12:59;;;;;;;0.40;0.23;;;22.30;99.90;;;;;;5086890;28;20854;-81
2023/09/13 09:15:26;;;;;;;0.40;0.30;;;22.40;99.90;;;;;;5073043;28;20460;-79
2023/09/13 09:17:54;;;;;;;0.40;0.30;;;22.30;99.90;;;;;;5070806;28;20450;-80
2023/09/13 09:20:20;;;;;;;0.40;0.20;;;22.10;99.90;;;;;;5072343;28;20780;-84
2023/09/13 09:22:46;;;;;;;0.50;0.40;;;22.30;99.90;;;;;;5081322;28;20490;-78
2023/09/13 09:25:13;;;;;;;0.40;0.23;;;22.00;99.90;;;;;;5063809;28;20549;-79
2023/09/13 09:27:40;;;;;;;0.40;0.30;;;21.10;99.90;;;;;;5074923;28;20190;-81
2023/09/13 09:30:07;;;;;;;0.40;0.30;;;21.50;99.90;;;;;;5061673;28;20817;-85
2023/09/13 09:32:35;;;;;;;0.40;0.20;;;21.90;99.90;;;;;;5064174;28;20438;-85
2023/09/13 09:35:01;;;;;;;0.40;0.20;;;21.90;99.90;;;;;;5056869;28;20457;-78
2023/09/13 09:37:31;;;;;;;0.40;0.30;;;22.20;99.90;;;;;;5059763;28;20443;-84
2023/09/13 09:39:57;;;;;;;0.40;0.20;;;22.20;99.90;;;;;;5079565;28;20261;-77
2023/09/13 09:42:23;;;;;;;0.40;0.27;;;22.30;99.90;;;;;;5080166;28;20466;-82
2023/09/13 09:44:50;;;;;;;0.60;0.40;;;22.80;99.90;;;;;;5065893;28;20439;-85
2023/09/13 09:47:16;;;;;;;0.40;0.30;;;23.00;99.90;;;;;;5082518;28;20200;-83
2023/09/13 09:49:43;;;;;;;0.40;0.30;;;22.50;99.90;;;;;;5067379;28;20936;-80
2023/09/13 09:52:10;;;;;;;0.40;0.20;;;22.50;99.90;;;;;;5070751;28;20430;-83
2023/09/13 09:54:39;;;;;;;0.40;0.20;;;22.50;99.90;;;;;;5072285;28;20634;-82
2023/09/13 09:57:06;;;;;;;0.40;0.30;;;22.40;99.90;;;;;;5069101;28;20435;-81
2023/09/13 09:59:34;;;;;;;0.40;0.23;;;22.20;99.90;;;;;;5071535;28;20429;-85
2023/09/13 10:02:00;;;;;;;0.40;0.20;;;22.30;99.90;;;;;;5068107;28;20477;-82
2023/09/13 10:04:29;;;;;;;0.40;0.20;;;22.30;99.90;;;;;;5083051;28;21123;-85
2023/09/13 10:07:04;;;;;;;0.40;0.30;;;22.40;99.90;;;;;;5073772;28;20449;-79
2023/09/13 10:09:47;;;;;;;0.40;0.30;;;22.40;99.90;;;;;;5073305;28;20449;-85
2023/09/13 10:12:14;;;;;;;0.40;0.20;;;23.00;99.90;;;;;;5066734;28;20439;-81
2023/09/13 10:14:41;;;;;;;0.40;0.20;;;22.80;99.90;;;;;;5078646;28;20423;-83
2023/09/13 10:17:07;;;;;;;0.80;0.47;;;23.30;99.90;;;;;;5075912;28;20532;-81
2023/09/13 10:19:34;;;;;;;0.40;0.30;;;23.80;99.90;;;;;;5071165;28;20480;-88
2023/09/13 10:22:00;;;;;;;0.40;0.23;;;24.50;99.90;;;;;;5068183;28;20479;-84
2023/09/13 10:24:35;;;;;;;0.43;0.30;;;25.70;99.90;;;;;;5067097;28;20526;-80
2023/09/13 10:27:06;;;;;;;0.40;0.30;;;25.70;99.90;;;;;;5078823;28;20442;-84
2023/09/13 10:29:43;;;;;;;0.40;0.30;;;25.10;99.90;;;;;;5058795;28;20439;-79
2023/09/13 10:32:14;;;;;;;0.50;0.50;;;25.00;99.90;;;;;;5074207;28;20461;-85
2023/09/13 10:34:49;;;;;;;0.40;0.30;;;25.10;99.90;;;;;;5053130;28;20819;-81
2023/09/13 10:37:42;;;;;;;0.60;0.50;;;25.30;99.90;;;;;;5061877;28;20441;-82
2023/09/13 10:40:17;;;;;;;0.40;0.30;;;25.60;99.90;;;;;;5067859;28;20460;-83
2023/09/13 10:42:44;;;;;;;0.40;0.30;;;25.40;99.90;;;;;;5055825;28;20464;-81
2023/09/13 10:45:17;;;;;;;0.40;0.30;;;25.00;99.90;;;;;;5066865;28;20436;-88
2023/09/13 10:47:43;;;;;;;0.40;0.30;;;24.80;99.90;;;;;;5071027;28;20784;-81
2023/09/13 10:50:09;;;;;;;0.40;0.30;;;24.70;99.90;;;;;;5080515;28;20455;-82
2023/09/13 10:52:35;;;;;;;0.40;0.20;;;24.80;99.90;;;;;;5082170;28;20970;-79
2023/09/13 10:55:06;;;;;;;0.40;0.30;;;24.60;99.90;;;;;;5072562;28;20871;-83
2023/09/13 10:57:32;;;;;;;0.40;0.30;;;24.10;99.90;;;;;;5072129;28;20446;-84
2023/09/13 10:59:59;;;;;;;0.40;0.30;;;24.40;99.90;;;;;;5068803;28;20544;-81
2023/09/13 11:02:25;;;;;;;0.40;0.30;;;24.50;99.90;;;;;;5072755;28;20474;-79
2023/09/13 11:04:51;;;;;;;0.40;0.30;;;24.80;99.90;;;;;;5081261;28;20514;-79
2023/09/13 11:07:17;;;;;;;0.50;0.40;;;24.90;99.90;;;;;;5073308;28;20498;-82
2023/09/13 11:09:45;;;;;;;0.40;0.30;;;24.90;99.90;;;;;;5080486;28;20216;-83
2023/09/13 11:12:12;;;;;;;0.40;0.30;;;24.40;99.90;;;;;;5071832;28;20492;-78
2023/09/13 11:14:42;;;;;;;0.40;0.30;;;23.90;99.90;;;;;;5068275;28;20438;-83
2023/09/13 11:17:37;;;;;;;0.50;0.40;;;24.20;99.90;;;;;;5060239;28;20443;-82
2023/09/13 11:20:22;;;;;;;0.40;0.30;;;24.80;99.90;;;;;;5069669;28;20466;-81
2023/09/13 11:23:09;;;;;;;0.40;0.27;;;25.50;99.90;;;;;;5073138;28;20465;-79
2023/09/13 11:26:02;;;;;;;1.07;0.60;;;25.90;99.90;;;;;;5068210;28;20455;-84
2023/09/13 11:28:29;;;;;;;0.40;0.23;;;26.20;99.90;;;;;;5063538;28;20448;-81
2023/09/13 11:31:02;;;;;;;0.40;0.30;;;26.40;99.90;;;;;;5070413;28;20468;-81
2023/09/13 11:33:28;;;;;;;0.40;0.30;;;25.90;99.90;;;;;;5063051;28;20451;-80
2023/09/13 11:35:56;;;;;;;0.40;0.30;;;25.00;99.90;;;;;;5066566;28;20469;-82
2023/09/13 11:38:23;;;;;;;2.20;1.13;;;25.60;99.90;;;;;;5064735;28;20463;-82
2023/09/13 11:40:49;;;;;;;0.40;0.30;;;26.30;99.90;;;;;;5063701;28;20475;-78
2023/09/13 11:43:22;;;;;;;0.40;0.30;;;26.00;99.90;;;;;;5063206;28;20561;-85
2023/09/13 11:45:50;;;;;;;0.40;0.30;;;26.30;99.90;;;;;;5063154;28;20448;-79
2023/09/13 11:48:40;;;;;;;0.40;0.30;;;27.20;99.90;;;;;;5062150;28;20451;-83
2023/09/13 11:51:13;;;;;;;0.40;0.30;;;28.00;99.90;;;;;;5059098;28;20458;-83
2023/09/13 11:53:40;;;;;;;0.40;0.30;;;27.30;99.90;;;;;;5077172;28;20446;-80
2023/09/13 11:56:07;;;;;;;0.40;0.27;;;27.20;99.90;;;;;;5078536;28;20438;-78
2023/09/13 11:58:46;;;;;;;0.40;0.30;;;25.90;99.90;;;;;;5079260;28;20513;-80
2023/09/13 12:01:12;;;;;;;0.40;0.30;;;25.70;99.90;;;;;;5073104;28;20525;-83
2023/09/13 12:03:43;;;;;;;0.40;0.30;;;25.90;99.90;;;;;;5067652;28;20500;-82
2023/09/13 12:06:09;;;;;;;0.40;0.30;;;25.60;99.90;;;;;;5067625;28;20183;-80
2023/09/13 12:08:38;;;;;;;0.40;0.30;;;25.50;99.90;;;;;;5074455;28;20449;-80
2023/09/13 12:11:06;;;;;;;0.40;0.30;;;25.00;99.90;;;;;;5070442;28;20207;-85
2023/09/13 12:13:48;;;;;;;0.40;0.30;;;25.20;99.90;;;;;;5059589;28;20439;-85
2023/09/13 12:16:14;;;;;;;0.50;0.30;;;25.50;99.90;;;;;;5072522;28;20427;-80
2023/09/13 12:18:42;;;;;;;0.40;0.30;;;25.90;99.90;;;;;;5083265;28;20437;-85
2023/09/13 12:21:09;;;;;;;0.40;0.30;;;25.30;99.90;;;;;;5066892;28;20460;-86
2023/09/13 12:23:36;;;;;;;0.40;0.30;;;25.10;99.90;;;;;;5073419;28;20494;-78
2023/09/13 12:26:08;;;;;;;0.40;0.30;;;24.80;99.90;;;;;;5073794;28;20411;-81
2023/09/13 12:28:37;;;;;;;0.50;0.40;;;24.80;99.90;;;;;;5078975;28;20950;-82
2023/09/13 12:31:07;;;;;;;0.50;0.37;;;24.70;99.90;;;;;;5071080;28;20468;-83
2023/09/13 12:33:36;;;;;;;0.40;0.30;;;24.60;99.90;;;;;;5070722;28;20435;-83
2023/09/13 12:36:03;;;;;;;0.47;0.27;;;24.70;99.90;;;;;;5069649;28;20465;-82
2023/09/13 12:38:44;;;;;;;0.50;0.40;;;24.50;99.90;;;;;;5073494;28;20462;-82
2023/09/13 12:41:18;;;;;;;0.40;0.30;;;25.00;99.90;;;;;;5065981;28;21060;-81
2023/09/13 12:43:47;;;;;;;0.40;0.30;;;25.00;99.90;;;;;;5062339;28;20463;-83
2023/09/13 12:46:16;;;;;;;0.40;0.30;;;26.50;99.90;;;;;;5068292;28;20444;-84
2023/09/13 12:48:43;;;;;;;0.50;0.30;;;25.00;99.90;;;;;;5074175;28;20446;-80
2023/09/13 12:51:09;;;;;;;0.40;0.30;;;24.50;99.90;;;;;;5082347;28;20453;-81